Observations
| Time | Sensor | AQI | SAQ | Temp °C | Hum % | Pres Pa | CO μg/m³ | H₂S μg/m³ | NO μg/m³ | NO₂ μg/m³ | O₃ μg/m³ | SO₂ μg/m³ | CO₂e PPM | VOC PPM | PM1 μg/m³ | PM2.5 μg/m³ | PM4 μg/m³ | PM10 μg/m³ | TPS µm |
|---|---|---|---|---|---|---|---|---|---|---|---|---|---|---|---|---|---|---|---|
| Wednesday 12 August 2026 | |||||||||||||||||||
| 11:10 | Trim Market St | 2 | 33.7 | 35 | 66,362 | 0 | 0 | 0.41 | 8.02 | 84.7 | 0 | 1.43 | 4.7 | 5.17 | |||||
| 11:10 | Trim Patrick St | 2 | 29.9 | 44 | 69,276 | 0 | 0 | 0.8 | 7.98 | 79.7 | 10.78 | 5.43 | 10.64 | 11.71 | |||||
| 11:09 | Trim Market St | 2 | 33.8 | 35 | 66,362 | 0 | 0 | 0.42 | 11.97 | 92.66 | 0 | 1.43 | 4.18 | 4.6 | |||||
| 11:09 | Trim Patrick St | 2 | 29.9 | 44 | 69,260 | 0 | 0 | 0.79 | 8.25 | 84.02 | 9.61 | 4.57 | 9.91 | 10.9 | |||||
| 11:08 | Trim Market St | 2 | 33.9 | 35 | 66,386 | 0 | 0 | 0.43 | 8.43 | 83.37 | 0 | 2.14 | 5.8 | 5.85 | |||||
| 11:08 | Trim Patrick St | 2 | 30 | 45 | 69,271 | 0 | 0 | 0.75 | 3.98 | 62.48 | 10.02 | 6.29 | 12.14 | 13.35 | |||||
| 11:07 | Trim Market St | 2 | 34 | 35 | 66,388 | 0 | 0 | 0.39 | 11.37 | 82.09 | 0 | 2.85 | 6.33 | 7.53 | |||||
| 11:07 | Trim Patrick St | 2 | 30 | 45 | 69,292 | 0 | 0 | 0.75 | 10.52 | 106.47 | 11.09 | 3.71 | 9.05 | 9.96 | |||||
| 11:06 | Trim Patrick St | 2 | 30 | 45 | 69,284 | 0 | 0 | 0.77 | 7.86 | 75.04 | 9.9 | 5.43 | 11.39 | 12.53 | |||||
| 11:05 | Trim Patrick St | 2 | 30.1 | 44 | 69,302 | 0 | 0 | 0.77 | 4.52 | 73.68 | 10.53 | 5.43 | 11.45 | 12.59 | |||||
| 11:05 | Trim Market St | 2 | 34.3 | 34 | 66,392 | 0 | 0 | 0.35 | 10.73 | 50.55 | 0 | 2.14 | 5.81 | 7.53 | |||||
| 11:04 | Trim Patrick St | 2 | 30.1 | 43 | 69,294 | 0 | 0 | 0.8 | 7.17 | 68.27 | 9.39 | 5.43 | 10.72 | 11.8 | |||||
| 11:03 | Trim Patrick St | 2 | 30.2 | 44 | 69,314 | 0 | 0 | 0.8 | 8.17 | 75.01 | 9.92 | 4.57 | 9.88 | 10.87 | |||||
| 11:02 | Trim Patrick St | 2 | 30.3 | 44 | 69,312 | 0 | 0 | 0.78 | 6.75 | 72.09 | 10.06 | 5.43 | 11.43 | 12.57 | |||||
| 11:02 | Trim Market St | 2 | 34.7 | 34 | 66,467 | 0 | 0 | 0.3 | 12.27 | 73.11 | 0 | 2.14 | 5.29 | 5.82 | |||||
| 11:01 | Trim Patrick St | 2 | 30.4 | 45 | 69,308 | 0 | 0 | 0.79 | 5.01 | 71.13 | 10.77 | 5.43 | 9.82 | 10.8 | |||||
| 11:01 | Trim Market St | 2 | 34.9 | 34 | 66,487 | 0 | 0 | 0.28 | 4.09 | 73.16 | 0 | 2.14 | 4.75 | 5.84 | |||||
| 11:00 | Trim Patrick St | 2 | 30.4 | 44 | 69,330 | 0 | 0 | 0.78 | 4.93 | 67.98 | 9.2 | 5.43 | 10.69 | 11.76 | |||||
| 10:59 | Trim Patrick St | 2 | 30.5 | 44 | 69,336 | 0 | 0 | 0.76 | 3.18 | 68.18 | 10.61 | 5.43 | 11.41 | 12.55 | |||||
| 10:58 | Trim Patrick St | 2 | 30.6 | 43 | 69,339 | 0 | 0 | 0.74 | 1.69 | 71.96 | 10.64 | 4.57 | 9.95 | 10.95 | |||||